Mexico IV — XCFR — position and weather

sailwx.info

Track history (hours):
 
Tides and Currents Weather Stations Pressure Air Temp Water Temp Dewpoint Dewpoint Depression Visibility Wind Speed Wind Dir Waves Ship Positions

Mexico IV

Last reported at 2018-Jan-23 00:52 UTC. Time now 2018-Jan-23 10:09 UTC.
Position N 20°31' W 086°57'.

; draft 1.6 m.

MMSI: 345110009.

Date/timePositionNaut miles runAvg speedWind from/ knotsBaromVisibWave heightAir tempDewpointWater temp
2018-Jan-23 00:52N 20°31' W 086°57'2 5.5
2018-Jan-23 00:31N 20°32' W 086°58'1 0.6
2018-Jan-22 23:16N 20°32' W 086°59'2 4.2
2018-Jan-22 22:40N 20°31' W 086°57'215.2
2018-Jan-22 22:30N 20°33' W 086°59'1 0.5
2018-Jan-22 21:16N 20°33' W 086°59'311.7
2018-Jan-22 21:00N 20°31' W 086°57'0 0.1
2018-Jan-22 20:30N 20°31' W 086°57'0 0.0
2018-Jan-22 20:00N 20°31' W 086°57'3 1.5
2018-Jan-22 18:16N 20°32' W 086°59'3 6.9
2018-Jan-22 17:54N 20°31' W 086°57'2 1.5
2018-Jan-22 16:15N 20°32' W 086°59'2 4.4
2018-Jan-22 15:42N 20°31' W 086°57'2 1.4
2018-Jan-22 14:15N 20°32' W 086°59'2 7.7
2018-Jan-22 13:59N 20°31' W 086°57'0 0.0
2018-Jan-22 13:31N 20°31' W 086°57'1 1.1
2018-Jan-22 13:00N 20°31' W 086°57'1 1.1
2018-Jan-22 12:30N 20°31' W 086°57'0 0.0
2018-Jan-22 11:59N 20°31' W 086°57'0 0.0
2018-Jan-22 01:25N 20°31' W 086°57'0 0.0
2018-Jan-22 00:59N 20°31' W 086°57'0 0.0
2018-Jan-22 00:28N 20°31' W 086°57'0 0.0
2018-Jan-22 00:00N 20°31' W 086°57'0 0.0
2018-Jan-21 23:30N 20°31' W 086°57'0 0.0
2018-Jan-21 23:00N 20°31' W 086°57'0 0.0
2018-Jan-21 22:29N 20°31' W 086°57'0 0.0
2018-Jan-21 22:00N 20°31' W 086°57'0 0.0
2018-Jan-21 21:27N 20°31' W 086°57'0 0.0
2018-Jan-21 21:00N 20°31' W 086°57'0 0.0
2018-Jan-21 20:29N 20°31' W 086°57'0 0.0
2018-Jan-21 19:59N 20°31' W 086°57'0 0.0
2018-Jan-21 19:29N 20°31' W 086°57'0 0.0
2018-Jan-21 19:00N 20°31' W 086°57'0 0.0
2018-Jan-21 18:30N 20°31' W 086°57'0 0.0
2018-Jan-21 18:00N 20°31' W 086°57'0 0.0
2018-Jan-21 17:29N 20°31' W 086°57'0 0.0
2018-Jan-21 17:00N 20°31' W 086°57'0 0.0
2018-Jan-21 16:30N 20°31' W 086°57'0 0.0
2018-Jan-21 15:55N 20°31' W 086°57'0 0.0
2018-Jan-21 15:28N 20°31' W 086°57'0 0.0
2018-Jan-21 15:00N 20°31' W 086°57'0 0.0
2018-Jan-21 14:30N 20°31' W 086°57'0 0.0
2018-Jan-21 14:00N 20°31' W 086°57'0 0.0
2018-Jan-21 13:30N 20°31' W 086°57'0 0.0
2018-Jan-21 13:00N 20°31' W 086°57'0 0.0
2018-Jan-21 12:30N 20°31' W 086°57'0 0.1
2018-Jan-21 11:58N 20°31' W 086°57'0 0.0
2018-Jan-21 11:30N 20°31' W 086°57'0 0.0
2018-Jan-21 03:18N 20°31' W 086°57'0 0.0
2018-Jan-21 03:00N 20°31' W 086°57'2 1.2
2018-Jan-21 01:16N 20°32' W 086°58'2 2.3
2018-Jan-21 00:25N 20°31' W 086°57'0 0.2
2018-Jan-21 00:00N 20°31' W 086°57'0 0.1
2018-Jan-20 23:12N 20°31' W 086°57'0 0.7
2018-Jan-20 23:00N 20°31' W 086°57'2 4.7
2018-Jan-20 22:30N 20°29' W 086°58'3 1.1
2018-Jan-20 19:24N 20°32' W 086°60'3 5.3
2018-Jan-20 18:53N 20°31' W 086°57'2 1.0
2018-Jan-20 17:19N 20°32' W 086°59'2 3.2
2018-Jan-20 16:49N 20°31' W 086°57'2 1.6
2018-Jan-20 15:18N 20°32' W 086°59'2 4.4
2018-Jan-20 14:45N 20°31' W 086°57'2 1.7
2018-Jan-20 13:15N 20°32' W 086°59'3 9.6
2018-Jan-20 13:00N 20°31' W 086°57'0 0.0
2018-Jan-20 12:31N 20°31' W 086°57'0 0.0
2018-Jan-20 02:38N 20°31' W 086°57'0 0.4
2018-Jan-20 02:30N 20°31' W 086°57'0 0.3
2018-Jan-20 02:00N 20°31' W 086°57'0 0.0
2018-Jan-20 01:30N 20°31' W 086°57'0 0.0
2018-Jan-20 00:59N 20°31' W 086°57'3 2.2
2018-Jan-19 23:36N 20°33' W 086°59'216.7
2018-Jan-19 23:30N 20°32' W 086°58'2 4.7
2018-Jan-19 23:00N 20°29' W 086°58'3 1.8
2018-Jan-19 21:14N 20°33' W 086°59'3 6.7
2018-Jan-19 20:50N 20°31' W 086°57'3 1.6
2018-Jan-19 19:19N 20°32' W 086°59'3 4.9
2018-Jan-19 18:48N 20°31' W 086°57'3 1.9
2018-Jan-19 17:23N 20°33' W 086°59'3 5.1
2018-Jan-19 16:51N 20°31' W 086°57'3 1.8
2018-Jan-19 15:23N 20°33' W 086°59'3 4.5
2018-Jan-19 14:48N 20°31' W 086°57'3 1.9
2018-Jan-19 13:18N 20°33' W 086°59'3 9.8
2018-Jan-19 13:01N 20°31' W 086°57'0 0.0
2018-Jan-19 12:30N 20°31' W 086°57'0 0.3
2018-Jan-19 12:00N 20°31' W 086°57'0 0.4
2018-Jan-19 11:30N 20°31' W 086°57'0 0.0
2018-Jan-19 01:49N 20°31' W 086°57'0 0.2
2018-Jan-19 01:28N 20°31' W 086°57'0 0.2
2018-Jan-19 00:58N 20°31' W 086°57'2 1.2
2018-Jan-18 23:26N 20°32' W 086°59'2 4.6
2018-Jan-18 23:00N 20°31' W 086°57'3 2.0
2018-Jan-18 21:25N 20°33' W 086°59'3 7.5
2018-Jan-18 21:00N 20°31' W 086°57'0 0.0
2018-Jan-18 20:30N 20°31' W 086°57'0 0.0
2018-Jan-18 20:00N 20°31' W 086°57'3 2.0
2018-Jan-18 18:32N 20°32' W 086°60'117.2
2018-Jan-18 18:30N 20°32' W 086°59'3 3.9
2018-Jan-18 17:51N 20°31' W 086°57'2 1.5
2018-Jan-18 16:17N 20°32' W 086°59'2 8.2
2018-Jan-18 16:00N 20°31' W 086°57'2 1.4
2018-Jan-18 14:18N 20°32' W 086°59'2 0.2
2018-Jan-18 02:46N 20°31' W 086°57'2 8.0
2018-Jan-18 02:30N 20°32' W 086°59'0 0.2
2018-Jan-18 01:16N 20°32' W 086°59'2 8.5
2018-Jan-18 01:00N 20°31' W 086°57'0 0.4
2018-Jan-18 00:00N 20°31' W 086°57'0 0.3
2018-Jan-17 23:57N 20°31' W 086°57'  
Track history (hours):
 
Tides and Currents Weather Stations Pressure Air Temp Water Temp Dewpoint Dewpoint Depression Visibility Wind Speed Wind Dir Waves Ship Positions

Mexico IV

Last reported at 2018-Jan-23 00:52 UTC. Time now 2018-Jan-23 10:09 UTC.
Position N 20°31' W 086°57'.

; draft 1.6 m.

MMSI: 345110009.

Date/timePositionNaut miles runAvg speedWind from/ knotsBaromVisibWave heightAir tempDewpointWater temp
2018-Jan-23 00:52N 20°31' W 086°57'2 5.5
2018-Jan-23 00:31N 20°32' W 086°58'1 0.6
2018-Jan-22 23:16N 20°32' W 086°59'2 4.2
2018-Jan-22 22:40N 20°31' W 086°57'215.2
2018-Jan-22 22:30N 20°33' W 086°59'1 0.5
2018-Jan-22 21:16N 20°33' W 086°59'311.7
2018-Jan-22 21:00N 20°31' W 086°57'0 0.1
2018-Jan-22 20:30N 20°31' W 086°57'0 0.0
2018-Jan-22 20:00N 20°31' W 086°57'3 1.5
2018-Jan-22 18:16N 20°32' W 086°59'3 6.9
2018-Jan-22 17:54N 20°31' W 086°57'2 1.5
2018-Jan-22 16:15N 20°32' W 086°59'2 4.4
2018-Jan-22 15:42N 20°31' W 086°57'2 1.4
2018-Jan-22 14:15N 20°32' W 086°59'2 7.7
2018-Jan-22 13:59N 20°31' W 086°57'0 0.0
2018-Jan-22 13:31N 20°31' W 086°57'1 1.1
2018-Jan-22 13:00N 20°31' W 086°57'1 1.1
2018-Jan-22 12:30N 20°31' W 086°57'0 0.0
2018-Jan-22 11:59N 20°31' W 086°57'0 0.0
2018-Jan-22 01:25N 20°31' W 086°57'0 0.0
2018-Jan-22 00:59N 20°31' W 086°57'0 0.0
2018-Jan-22 00:28N 20°31' W 086°57'0 0.0
2018-Jan-22 00:00N 20°31' W 086°57'0 0.0
2018-Jan-21 23:30N 20°31' W 086°57'0 0.0
2018-Jan-21 23:00N 20°31' W 086°57'0 0.0
2018-Jan-21 22:29N 20°31' W 086°57'0 0.0
2018-Jan-21 22:00N 20°31' W 086°57'0 0.0
2018-Jan-21 21:27N 20°31' W 086°57'0 0.0
2018-Jan-21 21:00N 20°31' W 086°57'0 0.0
2018-Jan-21 20:29N 20°31' W 086°57'0 0.0
2018-Jan-21 19:59N 20°31' W 086°57'0 0.0
2018-Jan-21 19:29N 20°31' W 086°57'0 0.0
2018-Jan-21 19:00N 20°31' W 086°57'0 0.0
2018-Jan-21 18:30N 20°31' W 086°57'0 0.0
2018-Jan-21 18:00N 20°31' W 086°57'0 0.0
2018-Jan-21 17:29N 20°31' W 086°57'0 0.0
2018-Jan-21 17:00N 20°31' W 086°57'0 0.0
2018-Jan-21 16:30N 20°31' W 086°57'0 0.0
2018-Jan-21 15:55N 20°31' W 086°57'0 0.0
2018-Jan-21 15:28N 20°31' W 086°57'0 0.0
2018-Jan-21 15:00N 20°31' W 086°57'0 0.0
2018-Jan-21 14:30N 20°31' W 086°57'0 0.0
2018-Jan-21 14:00N 20°31' W 086°57'0 0.0
2018-Jan-21 13:30N 20°31' W 086°57'0 0.0
2018-Jan-21 13:00N 20°31' W 086°57'0 0.0
2018-Jan-21 12:30N 20°31' W 086°57'0 0.1
2018-Jan-21 11:58N 20°31' W 086°57'0 0.0
2018-Jan-21 11:30N 20°31' W 086°57'0 0.0
2018-Jan-21 03:18N 20°31' W 086°57'0 0.0
2018-Jan-21 03:00N 20°31' W 086°57'2 1.2
2018-Jan-21 01:16N 20°32' W 086°58'2 2.3
2018-Jan-21 00:25N 20°31' W 086°57'0 0.2
2018-Jan-21 00:00N 20°31' W 086°57'0 0.1
2018-Jan-20 23:12N 20°31' W 086°57'0 0.7
2018-Jan-20 23:00N 20°31' W 086°57'2 4.7
2018-Jan-20 22:30N 20°29' W 086°58'3 1.1
2018-Jan-20 19:24N 20°32' W 086°60'3 5.3
2018-Jan-20 18:53N 20°31' W 086°57'2 1.0
2018-Jan-20 17:19N 20°32' W 086°59'2 3.2
2018-Jan-20 16:49N 20°31' W 086°57'2 1.6
2018-Jan-20 15:18N 20°32' W 086°59'2 4.4
2018-Jan-20 14:45N 20°31' W 086°57'2 1.7
2018-Jan-20 13:15N 20°32' W 086°59'3 9.6
2018-Jan-20 13:00N 20°31' W 086°57'0 0.0
2018-Jan-20 12:31N 20°31' W 086°57'0 0.0
2018-Jan-20 02:38N 20°31' W 086°57'0 0.4
2018-Jan-20 02:30N 20°31' W 086°57'0 0.3
2018-Jan-20 02:00N 20°31' W 086°57'0 0.0
2018-Jan-20 01:30N 20°31' W 086°57'0 0.0
2018-Jan-20 00:59N 20°31' W 086°57'3 2.2
2018-Jan-19 23:36N 20°33' W 086°59'216.7
2018-Jan-19 23:30N 20°32' W 086°58'2 4.7
2018-Jan-19 23:00N 20°29' W 086°58'3 1.8
2018-Jan-19 21:14N 20°33' W 086°59'3 6.7
2018-Jan-19 20:50N 20°31' W 086°57'3 1.6
2018-Jan-19 19:19N 20°32' W 086°59'3 4.9
2018-Jan-19 18:48N 20°31' W 086°57'3 1.9
2018-Jan-19 17:23N 20°33' W 086°59'3 5.1
2018-Jan-19 16:51N 20°31' W 086°57'3 1.8
2018-Jan-19 15:23N 20°33' W 086°59'3 4.5
2018-Jan-19 14:48N 20°31' W 086°57'3 1.9
2018-Jan-19 13:18N 20°33' W 086°59'3 9.8
2018-Jan-19 13:01N 20°31' W 086°57'0 0.0
2018-Jan-19 12:30N 20°31' W 086°57'0 0.3
2018-Jan-19 12:00N 20°31' W 086°57'0 0.4
2018-Jan-19 11:30N 20°31' W 086°57'0 0.0
2018-Jan-19 01:49N 20°31' W 086°57'0 0.2
2018-Jan-19 01:28N 20°31' W 086°57'0 0.2
2018-Jan-19 00:58N 20°31' W 086°57'2 1.2
2018-Jan-18 23:26N 20°32' W 086°59'2 4.6
2018-Jan-18 23:00N 20°31' W 086°57'3 2.0
2018-Jan-18 21:25N 20°33' W 086°59'3 7.5
2018-Jan-18 21:00N 20°31' W 086°57'0 0.0
2018-Jan-18 20:30N 20°31' W 086°57'0 0.0
2018-Jan-18 20:00N 20°31' W 086°57'3 2.0
2018-Jan-18 18:32N 20°32' W 086°60'117.2
2018-Jan-18 18:30N 20°32' W 086°59'3 3.9
2018-Jan-18 17:51N 20°31' W 086°57'2 1.5
2018-Jan-18 16:17N 20°32' W 086°59'2 8.2
2018-Jan-18 16:00N 20°31' W 086°57'2 1.4
2018-Jan-18 14:18N 20°32' W 086°59'2 0.2
2018-Jan-18 02:46N 20°31' W 086°57'2 8.0
2018-Jan-18 02:30N 20°32' W 086°59'0 0.2
2018-Jan-18 01:16N 20°32' W 086°59'2 8.5
2018-Jan-18 01:00N 20°31' W 086°57'0 0.4
2018-Jan-18 00:00N 20°31' W 086°57'0 0.3
2018-Jan-17 23:57N 20°31' W 086°57'  

Dump ship's entire track history